Millenium Air

Millenium Air Since 1998



 METAR AND TAF INFORMATION
METAR FOR LICA
ADDS - METARS form results

(0205 UTC 06 December 2020)
Data provider http://aviationweather.gov/metar/data/
 
METAR text: LICA 060150Z AUTO 06016KT 9999 BKN041/// BKN140/// 17/14 Q1007
Conditions at: LICA (LAMEZIA TERME , IT) observed 0150 UTC 06 December 2020
Temperature: 17.0°C (63°F)
Dewpoint: 14.0°C (57°F) [RH = 82%]
Pressure (altimeter): 29.73 inches Hg (1007.0 mb)
Winds: from the ENE (60 degrees) at 18 MPH (16 knots; 8.2 m/s)
Visibility: 6 or more miles (10+ km)
Ceiling: 4100 feet AGL
Clouds: broken clouds at 4100 feet AGL
broken clouds at 14000 feet AGL
Weather: no significant weather observed at this time

METAR text: LICA 060120Z AUTO 06016KT 9999 SCT078/// BKN130/// 17/14 Q1007
Conditions at: LICA (LAMEZIA TERME , IT) observed 0120 UTC 06 December 2020
Temperature: 17.0°C (63°F)
Dewpoint: 14.0°C (57°F) [RH = 82%]
Pressure (altimeter): 29.73 inches Hg (1007.0 mb)
Winds: from the ENE (60 degrees) at 18 MPH (16 knots; 8.2 m/s)
Visibility: 6 or more miles (10+ km)
Ceiling: 13000 feet AGL
Clouds: scattered clouds at 7800 feet AGL
broken clouds at 13000 feet AGL
Weather: no significant weather observed at this time

Forecast for: LICA (LAMEZIA TERME , IT)
Text: TAF LICA 052300Z 0600/0624 07018G28KT 9999 SCT020
Forecast period: 0000 UTC 06 December 2020 to 0000 UTC 07 December 2020
Forecast type: FROM: standard forecast or significant change
Winds: from the ENE (70 degrees) at 21 MPH (18 knots; 9.3 m/s)
gusting to 32 MPH (28 knots; 14.4 m/s)
Visibility: 6 or more miles (10+ km)
Ceiling: at least 12,000 feet AGL
Clouds: scattered clouds at 2000 feet AGL
Weather: no significant weather forecast for this period
Text: TEMPO 0603/0614 TSRA
Forecast period: 0300 to 1400 UTC 06 December 2020
Forecast type: TEMPORARY: The following changes expected for less than half the time period
Visibility: missing
Ceiling: unknown
Clouds: missing
Weather: TSRA  (rain associated with thunderstorm(s))

 AIRPORT MAP

 RUNWAY INFORMATION
Runway 10 Runway length 7920 ft Runway width 148 ft
Runway elevation 20 ft Runway displaced threshold 348 ft Runway heading 99
Runway 28 Runway length 7920 ft Runway width 148 ft
Runway elevation 39 ft Runway displaced threshold 351 ft Runway heading 279

 AIRPORT FREQUENCIES
Type APP Name APP Frequency 118.8 MHZ
Type TWR Name TWR Frequency 119.7 MHZ

 AIRPORT NEAR NAVIGATION AIDS
Type VOR-DME Name Lamezia Terme Frequency 112500 KHZ